Time;durP1;ratioP1;P1;durP2;ratioP2;P2;SDS_P1;SDS_P2;PMS_P1;PMS_P2;Temp;Humidity;BMP_temperature;BMP_pressure;BME280_temperature;BME280_humidity;BME280_pressure;Samples;Min_cycle;Max_cycle;Signal;HPM_P1;HPM_P2
2024/01/26 00:01:53;;;;;;;11.27;4.10;;;;;;;6.43;55.68;100551.78;4376175;32;20138;-73
2024/01/26 00:04:23;;;;;;;9.18;3.33;;;;;;;6.43;55.70;100554.41;4377813;32;20165;-73
2024/01/26 00:06:53;;;;;;;9.93;3.25;;;;;;;6.50;55.64;100550.59;4377928;32;20161;-73
2024/01/26 00:09:23;;;;;;;7.78;3.97;;;;;;;6.36;56.04;100547.66;4377854;32;20486;-73
2024/01/26 00:11:53;;;;;;;8.00;3.45;;;;;;;6.18;56.50;100551.94;4377846;32;20486;-73
2024/01/26 00:14:23;;;;;;;7.53;3.85;;;;;;;6.29;56.30;100546.22;4378127;32;20165;-73
2024/01/26 00:16:53;;;;;;;11.27;3.90;;;;;;;6.28;56.14;100540.09;4378052;32;20422;-73
2024/01/26 00:19:22;;;;;;;13.27;4.57;;;;;;;6.34;56.21;100544.25;4377697;32;20153;-73
2024/01/26 00:21:51;;;;;;;10.07;3.95;;;;;;;6.30;56.24;100540.91;4377587;32;20164;-73
2024/01/26 00:24:24;;;;;;;14.35;3.87;;;;;;;6.21;56.57;100543.88;4377686;32;20165;-73
2024/01/26 00:26:53;;;;;;;16.55;4.47;;;;;;;6.30;56.27;100545.31;4377633;32;20142;-72
2024/01/26 00:29:23;;;;;;;21.12;4.62;;;;;;;6.30;56.34;100547.94;4394059;27;20431;-73
2024/01/26 00:31:53;;;;;;;12.15;3.83;;;;;;;6.00;57.43;100552.66;4391881;32;20157;-73
2024/01/26 00:34:22;;;;;;;10.45;3.78;;;;;;;6.29;56.50;100540.94;4407701;32;20208;-72
2024/01/26 00:36:52;;;;;;;10.32;4.93;;;;;;;6.20;57.04;100557.97;4407438;32;20498;-73
2024/01/26 00:39:21;;;;;;;7.12;4.55;;;;;;;6.27;56.77;100556.81;4402188;32;20157;-73
2024/01/26 00:41:53;;;;;;;14.90;4.12;;;;;;;6.09;57.43;100560.19;4407946;32;20152;-73
2024/01/26 00:44:23;;;;;;;10.43;4.07;;;;;;;6.06;57.41;100553.28;4407916;32;20133;-73
2024/01/26 00:46:53;;;;;;;8.98;4.07;;;;;;;6.32;56.76;100557.47;4407720;32;20148;-73
2024/01/26 00:49:23;;;;;;;11.15;3.87;;;;;;;6.20;57.04;100563.25;4402146;32;20153;-73
2024/01/26 00:52:06;;;;;;;9.27;3.83;;;;;;;6.18;57.17;100569.47;4398084;32;20497;-73
2024/01/26 00:54:36;;;;;;;9.35;4.12;;;;;;;6.36;56.65;100572.22;4407765;32;20133;-73
2024/01/26 00:57:05;;;;;;;11.52;4.35;;;;;;;6.53;56.15;100576.81;4407823;32;20161;-73
2024/01/26 00:59:36;;;;;;;8.50;3.60;;;;;;;6.48;56.29;100578.75;4416133;27;20470;-73
2024/01/26 01:02:05;;;;;;;14.45;4.75;;;;;;;6.44;56.23;100584.22;4420678;32;20149;-73
2024/01/26 01:04:35;;;;;;;9.25;4.70;;;;;;;6.52;55.95;100582.13;4422839;32;20179;-72
2024/01/26 01:07:04;;;;;;;9.07;4.10;;;;;;;6.44;56.28;100582.44;4423018;32;20188;-73
2024/01/26 01:09:34;;;;;;;8.27;4.25;;;;;;;6.50;56.02;100583.97;4422963;32;20145;-73
2024/01/26 01:12:04;;;;;;;8.80;4.18;;;;;;;6.36;56.45;100588.00;4422768;32;20152;-73
2024/01/26 01:14:36;;;;;;;13.52;4.28;;;;;;;6.64;55.74;100582.44;4423294;32;20136;-73
2024/01/26 01:17:06;;;;;;;10.50;5.00;;;;;;;6.54;55.99;100572.37;4422652;32;20143;-73
2024/01/26 01:19:35;;;;;;;13.18;3.95;;;;;;;6.61;55.70;100566.81;4422970;32;20160;-73
2024/01/26 01:22:10;;;;;;;7.05;3.78;;;;;;;6.33;56.38;100563.59;4422655;32;20184;-73
2024/01/26 01:24:40;;;;;;;10.50;4.18;;;;;;;6.49;56.01;100559.37;4422686;32;20161;-73
2024/01/26 01:27:09;;;;;;;10.98;4.35;;;;;;;6.40;56.37;100558.00;4422874;32;20512;-73
2024/01/26 01:29:40;;;;;;;11.75;5.35;;;;;;;6.43;56.23;100558.81;4416972;27;20160;-73
2024/01/26 01:32:09;;;;;;;8.88;4.37;;;;;;;6.35;56.50;100565.25;4392390;32;20502;-73
2024/01/26 01:34:39;;;;;;;13.82;5.45;;;;;;;6.00;57.44;100563.19;4392257;32;20157;-73
2024/01/26 01:37:08;;;;;;;14.50;4.68;;;;;;;5.88;57.63;100575.00;4392477;32;20157;-73
2024/01/26 01:39:38;;;;;;;12.13;3.62;;;;;;;6.20;56.93;100584.28;4392509;32;20141;-73
2024/01/26 01:42:13;;;;;;;9.93;4.43;;;;;;;6.21;56.85;100591.25;4392644;32;20149;-73
2024/01/26 01:44:45;;;;;;;16.17;4.80;;;;;;;6.10;57.17;100596.13;4392362;32;20435;-73
2024/01/26 01:47:16;;;;;;;11.63;5.75;;;;;;;5.89;57.66;100603.03;4392302;32;20176;-73
2024/01/26 01:49:46;;;;;;;10.27;4.30;;;;;;;6.19;56.91;100601.00;4392323;32;20145;-73
2024/01/26 01:52:16;;;;;;;10.32;4.18;;;;;;;6.29;56.49;100604.97;4392494;32;20141;-73
2024/01/26 01:54:52;;;;;;;11.12;4.10;;;;;;;6.24;56.57;100608.72;4398619;32;20160;-73
2024/01/26 01:57:23;;;;;;;14.00;4.30;;;;;;;5.72;58.05;100605.44;4407641;32;20145;-73
2024/01/26 01:59:54;;;;;;;12.85;4.62;;;;;;;6.19;56.73;100602.78;4406136;27;20165;-73
2024/01/26 02:02:25;;;;;;;13.23;5.22;;;;;;;6.11;56.95;100595.19;4402751;32;20163;-73
2024/01/26 02:04:55;;;;;;;15.60;5.00;;;;;;;5.81;57.65;100597.19;4407336;32;20192;-73
2024/01/26 02:07:25;;;;;;;13.15;4.18;;;;;;;5.81;57.42;100600.69;4407374;32;20161;-73
2024/01/26 02:09:53;;;;;;;12.48;3.33;;;;;;;6.05;56.84;100598.91;4401095;32;20149;-73
2024/01/26 02:12:23;;;;;;;9.82;4.15;;;;;;;6.12;56.59;100600.38;4407450;32;20509;-73
2024/01/26 02:14:53;;;;;;;9.68;4.10;;;;;;;5.82;57.42;100601.53;4407204;32;20180;-73
2024/01/26 02:17:30;;;;;;;12.40;4.75;;;;;;;5.99;56.90;100591.28;4407795;32;20145;-73
2024/01/26 02:20:00;;;;;;;8.43;4.12;;;;;;;6.04;56.82;100604.25;4401096;32;20461;-73
2024/01/26 02:22:33;;;;;;;7.80;3.90;;;;;;;5.85;56.98;100593.53;4407276;32;20148;-73
2024/01/26 02:25:05;;;;;;;8.80;4.00;;;;;;;6.22;55.95;100598.25;4407428;32;20149;-73
2024/01/26 02:27:35;;;;;;;9.10;4.50;;;;;;;5.84;57.03;100611.09;4407267;32;20142;-72
2024/01/26 02:30:06;;;;;;;16.80;4.40;;;;;;;5.97;56.71;100608.88;4413584;27;20387;-73
2024/01/26 02:32:34;;;;;;;10.85;5.50;;;;;;;6.02;56.78;100600.78;4404517;32;20193;-73
2024/01/26 02:35:04;;;;;;;9.23;4.32;;;;;;;5.91;57.00;100606.47;4392285;32;20157;-73
2024/01/26 02:37:33;;;;;;;9.80;3.97;;;;;;;5.84;57.24;100608.47;4404249;32;20160;-73
2024/01/26 02:40:06;;;;;;;8.15;3.75;;;;;;;5.85;57.35;100602.28;4407333;32;20168;-73
2024/01/26 02:42:38;;;;;;;9.65;5.22;;;;;;;5.71;57.61;100606.37;4407299;32;20148;-73
2024/01/26 02:45:08;;;;;;;11.98;4.65;;;;;;;5.54;58.14;100607.84;4407128;32;20149;-73
2024/01/26 02:47:44;;;;;;;12.23;4.57;;;;;;;5.54;58.16;100599.09;4407200;32;20136;-73
2024/01/26 02:50:23;;;;;;;7.15;4.10;;;;;;;5.36;58.50;100604.13;4407681;32;20145;-73
2024/01/26 02:52:53;;;;;;;12.82;4.30;;;;;;;5.63;57.77;100607.50;4407076;32;20425;-73
2024/01/26 02:55:23;;;;;;;8.93;4.07;;;;;;;5.44;58.46;100609.09;4406957;32;20145;-73
2024/01/26 02:57:53;;;;;;;14.73;4.82;;;;;;;5.57;58.02;100614.75;4407028;32;20144;-73
2024/01/26 03:00:24;;;;;;;14.70;4.87;;;;;;;5.27;58.51;100617.63;4410778;27;20137;-73
2024/01/26 03:02:53;;;;;;;8.90;3.50;;;;;;;5.20;58.99;100625.75;4393600;32;20153;-73
2024/01/26 03:05:26;;;;;;;14.77;4.72;;;;;;;5.25;59.01;100621.19;4407230;32;20149;-73
2024/01/26 03:07:55;;;;;;;7.53;3.97;;;;;;;5.35;58.72;100633.09;4398481;32;270765;-73
2024/01/26 03:10:26;;;;;;;12.60;4.55;;;;;;;5.57;57.90;100628.75;4406788;32;20136;-73
2024/01/26 03:12:56;;;;;;;10.57;4.47;;;;;;;5.68;57.63;100631.84;4406899;32;20153;-73
2024/01/26 03:15:25;;;;;;;9.23;4.30;;;;;;;5.93;56.97;100635.34;4406620;32;20173;-73
2024/01/26 03:17:54;;;;;;;8.38;3.60;;;;;;;5.48;58.27;100625.62;4406715;32;20165;-73
2024/01/26 03:20:24;;;;;;;13.60;4.37;;;;;;;5.77;57.43;100625.38;4407136;32;20145;-73
2024/01/26 03:22:56;;;;;;;9.50;4.43;;;;;;;5.75;57.56;100629.00;4406720;32;20149;-73
2024/01/26 03:25:27;;;;;;;8.75;5.37;;;;;;;5.84;57.29;100624.25;4406446;32;20165;-73
2024/01/26 03:27:56;;;;;;;11.15;4.05;;;;;;;5.68;57.71;100625.75;4406797;32;20563;-73
2024/01/26 03:30:25;;;;;;;9.15;4.07;;;;;;;5.75;57.70;100621.13;4399899;27;20156;-73
2024/01/26 03:32:54;;;;;;;12.95;4.43;;;;;;;5.56;58.32;100619.16;4390587;32;20177;-73
2024/01/26 03:35:24;;;;;;;11.00;5.05;;;;;;;5.50;58.68;100622.00;4392002;32;20138;-73
2024/01/26 03:37:53;;;;;;;11.75;3.87;;;;;;;5.29;59.03;100620.19;4391650;32;20513;-73
2024/01/26 03:40:25;;;;;;;12.40;4.72;;;;;;;5.60;58.46;100619.91;4391362;32;20137;-73
2024/01/26 03:42:55;;;;;;;12.95;4.72;;;;;;;5.41;59.04;100615.31;4391406;32;20153;-73
2024/01/26 03:45:25;;;;;;;10.05;4.05;;;;;;;5.60;58.59;100612.03;4391059;32;20161;-72
2024/01/26 03:47:54;;;;;;;8.48;4.55;;;;;;;5.32;59.49;100623.56;4391128;32;20510;-73
2024/01/26 03:50:25;;;;;;;10.30;4.62;;;;;;;5.09;60.23;100624.38;4391630;32;20133;-73
2024/01/26 03:52:54;;;;;;;9.80;4.35;;;;;;;5.13;60.12;100631.22;4391337;32;20173;-73
2024/01/26 03:55:24;;;;;;;8.02;4.50;;;;;;;5.14;60.01;100624.19;4391109;32;20276;-73
2024/01/26 03:57:52;;;;;;;10.85;5.87;;;;;;;5.05;60.28;100632.41;4391204;32;20153;-73
2024/01/26 04:00:27;;;;;;;17.73;5.65;;;;;;;5.34;59.57;100641.88;4419719;27;20148;-73
2024/01/26 04:02:56;;;;;;;11.52;5.22;;;;;;;5.01;60.43;100641.31;4405358;32;20153;-73
2024/01/26 04:05:25;;;;;;;11.63;4.93;;;;;;;5.26;59.76;100646.56;4406605;32;20188;-73
2024/01/26 04:07:55;;;;;;;11.65;5.45;;;;;;;5.35;59.55;100651.50;4405938;32;20153;-73
2024/01/26 04:10:25;;;;;;;9.45;4.45;;;;;;;5.06;60.19;100652.50;4405921;32;20160;-72
2024/01/26 04:12:54;;;;;;;11.27;5.28;;;;;;;5.26;59.40;100657.06;4408362;32;20140;-73
2024/01/26 04:15:23;;;;;;;9.98;4.65;;;;;;;5.00;60.31;100650.97;4408297;32;20169;-73
2024/01/26 04:17:53;;;;;;;11.02;5.12;;;;;;;5.05;60.36;100651.66;4408156;32;20169;-73
2024/01/26 04:20:25;;;;;;;9.90;4.40;;;;;;;4.84;60.87;100653.25;4408587;32;20141;-73
2024/01/26 04:22:54;;;;;;;11.73;4.50;;;;;;;4.97;60.58;100656.31;4408331;32;20173;-72
2024/01/26 04:25:23;;;;;;;9.45;3.62;;;;;;;5.06;60.27;100663.00;4407804;32;20194;-73
2024/01/26 04:27:52;;;;;;;10.57;3.80;;;;;;;4.62;61.52;100673.22;4408086;32;20168;-73
2024/01/26 04:30:25;;;;;;;8.75;5.00;;;;;;;4.59;61.54;100682.09;4412275;27;20137;-73
2024/01/26 04:32:56;;;;;;;;;;;;;;;4.98;60.49;100686.91;4407002;32;20216;-73
2024/01/26 04:35:25;;;;;;;9.02;4.10;;;;;;;5.17;60.14;100681.88;4408209;32;20060;-73
2024/01/26 04:37:55;;;;;;;10.82;4.35;;;;;;;5.24;59.76;100708.81;4407654;32;20180;-73
2024/01/26 04:40:26;;;;;;;7.75;4.30;;;;;;;5.29;59.61;100709.50;4408013;32;20173;-73
2024/01/26 04:42:55;;;;;;;8.93;4.40;;;;;;;5.53;58.95;100726.19;4407897;32;20164;-73
2024/01/26 04:45:26;;;;;;;11.05;4.22;;;;;;;5.47;59.04;100715.91;4407795;32;20145;-73
2024/01/26 04:47:57;;;;;;;16.45;5.57;;;;;;;5.41;59.28;100719.59;4408241;32;20145;-73
2024/01/26 04:50:26;;;;;;;11.63;5.22;;;;;;;5.20;59.69;100720.34;4402137;32;20168;-73
2024/01/26 04:52:56;;;;;;;11.10;4.55;;;;;;;5.48;59.09;100723.72;4407933;32;20156;-73
2024/01/26 04:55:26;;;;;;;8.57;3.72;;;;;;;5.09;60.12;100726.81;4408070;32;20164;-73
2024/01/26 04:57:55;;;;;;;7.47;3.70;;;;;;;5.15;59.98;100718.75;4407856;32;20133;-72
2024/01/26 05:00:28;;;;;;;9.02;4.60;;;;;;;5.42;59.02;100714.31;4416385;27;20148;-73
2024/01/26 05:02:59;;;;;;;12.07;5.15;;;;;;;4.82;60.65;100710.19;4405478;32;20475;-73
2024/01/26 05:05:31;;;;;;;9.48;4.32;;;;;;;5.00;60.31;100714.00;4408101;32;20390;-72
2024/01/26 05:08:00;;;;;;;12.93;4.62;;;;;;;4.87;60.78;100707.41;4407617;32;20144;-73
2024/01/26 05:10:30;;;;;;;11.55;4.60;;;;;;;5.02;60.55;100709.53;4407405;32;20152;-72
2024/01/26 05:12:59;;;;;;;7.78;4.10;;;;;;;4.89;60.86;100706.47;4407737;32;20161;-72
2024/01/26 05:15:28;;;;;;;14.87;6.28;;;;;;;5.04;60.61;100706.88;4407459;32;20189;-73
2024/01/26 05:17:58;;;;;;;10.25;4.45;;;;;;;5.00;60.52;100705.25;4407597;32;20481;-73
2024/01/26 05:20:27;;;;;;;8.05;4.00;;;;;;;5.04;60.40;100715.59;4407755;32;20160;-72
2024/01/26 05:23:00;;;;;;;6.10;4.05;;;;;;;4.88;61.20;100717.03;4407491;32;20160;-72
2024/01/26 05:25:29;;;;;;;12.50;4.68;;;;;;;5.11;60.68;100725.00;4407411;32;20140;-72
2024/01/26 05:27:59;;;;;;;9.63;4.97;;;;;;;4.91;61.23;100722.19;4407572;32;20441;-72
2024/01/26 05:30:28;;;;;;;7.87;3.90;;;;;;;5.16;60.53;100733.59;4412349;27;20170;-73
2024/01/26 05:33:01;;;;;;;9.20;4.12;;;;;;;5.22;60.36;100736.91;4405380;32;20171;-73
2024/01/26 05:35:30;;;;;;;16.70;4.80;;;;;;;4.96;61.04;100743.91;4407960;32;20161;-72
2024/01/26 05:37:59;;;;;;;7.57;3.72;;;;;;;5.12;60.61;100750.34;4407570;32;20149;-72
2024/01/26 05:40:28;;;;;;;7.37;4.05;;;;;;;5.09;60.62;100746.97;4407233;32;20200;-72
2024/01/26 05:42:58;;;;;;;9.50;4.57;;;;;;;5.36;59.95;100755.69;4407718;32;20148;-72
2024/01/26 05:45:27;;;;;;;9.50;4.10;;;;;;;5.30;59.99;100742.75;4407422;32;20502;-72
2024/01/26 05:47:57;;;;;;;15.07;4.25;;;;;;;5.24;60.34;100748.22;4407125;32;20129;-73
2024/01/26 05:50:28;;;;;;;10.15;4.15;;;;;;;5.12;60.63;100742.47;4407632;32;20514;-73
2024/01/26 05:52:58;;;;;;;14.18;4.57;;;;;;;5.05;60.90;100743.59;4407260;32;20168;-73
2024/01/26 05:55:27;;;;;;;10.75;4.32;;;;;;;5.08;60.83;100737.38;4407143;32;20153;-72
2024/01/26 05:57:59;;;;;;;6.68;4.32;;;;;;;4.74;62.04;100735.84;4407120;32;20165;-72
2024/01/26 06:00:28;;;;;;;13.77;4.45;;;;;;;5.03;61.25;100736.66;4411804;27;20149;-72
2024/01/26 06:02:58;;;;;;;15.52;5.40;;;;;;;4.76;62.20;100734.03;4405343;32;20181;-73
2024/01/26 06:05:28;;;;;;;12.43;4.93;;;;;;;4.72;62.40;100744.69;4407394;32;20511;-72
2024/01/26 06:07:59;;;;;;;14.00;5.78;;;;;;;4.50;62.92;100726.97;4407120;32;20517;-72
2024/01/26 06:10:28;;;;;;;9.75;4.55;;;;;;;4.67;62.55;100721.19;4407111;32;20141;-72
2024/01/26 06:12:57;;;;;;;10.45;4.72;;;;;;;4.52;63.02;100729.56;4407128;32;20144;-73
2024/01/26 06:15:26;;;;;;;10.50;4.95;;;;;;;4.72;62.59;100734.19;4407066;32;20149;-72
2024/01/26 06:17:56;;;;;;;9.57;4.93;;;;;;;4.51;63.18;100735.69;4407154;32;20204;-73
2024/01/26 06:20:31;;;;;;;11.45;4.80;;;;;;;4.55;63.03;100742.56;4407374;32;20160;-72
2024/01/26 06:23:00;;;;;;;10.57;4.90;;;;;;;4.63;62.97;100745.81;4407142;32;20159;-72
2024/01/26 06:25:29;;;;;;;8.35;4.53;;;;;;;4.62;62.99;100741.47;4407150;32;20148;-73
2024/01/26 06:28:02;;;;;;;13.70;5.72;;;;;;;4.78;62.58;100744.47;4407323;32;20152;-72
2024/01/26 06:30:32;;;;;;;12.05;5.25;;;;;;;4.71;62.76;100737.69;4417824;27;20157;-73
2024/01/26 06:33:01;;;;;;;10.35;5.65;;;;;;;4.78;62.55;100744.47;4407043;32;20176;-73
2024/01/26 06:35:33;;;;;;;12.00;6.82;;;;;;;4.75;62.61;100749.81;4406712;32;20168;-70
2024/01/26 06:38:02;;;;;;;17.35;6.00;;;;;;;4.90;62.01;100751.97;4406287;32;20158;-72
2024/01/26 06:40:33;;;;;;;19.08;5.47;;;;;;;4.66;62.60;100753.59;4406410;32;20148;-71
2024/01/26 06:43:06;;;;;;;7.82;5.28;;;;;;;4.65;62.88;100750.13;4406962;32;20168;-72
2024/01/26 06:45:35;;;;;;;17.90;4.75;;;;;;;4.81;62.45;100758.38;4406707;32;20429;-72
2024/01/26 06:48:07;;;;;;;8.60;4.57;;;;;;;4.92;62.27;100755.41;4406643;32;20160;-72
2024/01/26 06:50:41;;;;;;;16.65;8.13;;;;;;;4.92;62.21;100763.28;4400188;32;20160;-72
2024/01/26 06:53:11;;;;;;;10.48;6.10;;;;;;;4.81;62.64;100760.13;4406791;32;20193;-71
2024/01/26 06:55:42;;;;;;;15.23;5.62;;;;;;;4.69;63.00;100758.75;4406478;32;20160;-72
2024/01/26 06:58:11;;;;;;;7.03;4.30;;;;;;;4.96;62.36;100756.16;4406779;32;20160;-72
2024/01/26 07:00:41;;;;;;;13.65;4.68;;;;;;;4.89;62.84;100755.50;4410201;27;20490;-72
2024/01/26 07:03:13;;;;;;;15.80;6.28;;;;;;;5.36;61.67;100747.81;4389725;32;20188;-71
2024/01/26 07:05:43;;;;;;;13.70;6.87;;;;;;;6.08;59.12;100746.13;4391720;32;20164;-72
2024/01/26 07:08:13;;;;;;;20.52;7.22;;;;;;;6.48;58.06;100755.13;4391868;32;20300;-72
2024/01/26 07:10:42;;;;;;;9.38;5.32;;;;;;;6.74;56.91;100753.28;4391443;32;20149;-72
2024/01/26 07:13:11;;;;;;;10.57;4.95;;;;;;;6.92;56.44;100756.94;4391371;32;20510;-72
2024/01/26 07:15:41;;;;;;;11.23;5.60;;;;;;;6.89;55.88;100750.03;4391267;32;20157;-72
2024/01/26 07:18:13;;;;;;;15.48;5.07;;;;;;;6.80;56.31;100760.91;4391024;32;20157;-72
2024/01/26 07:20:44;;;;;;;10.57;4.87;;;;;;;6.79;56.43;100762.69;4391206;32;20162;-72
2024/01/26 07:23:14;;;;;;;10.02;5.32;;;;;;;6.89;56.25;100755.31;4391417;32;20169;-71
2024/01/26 07:25:45;;;;;;;13.55;5.35;;;;;;;6.80;56.30;100764.41;4390886;32;20144;-72
2024/01/26 07:28:14;;;;;;;12.52;6.03;;;;;;;6.98;55.80;100749.66;4390746;32;20447;-72
2024/01/26 07:30:43;;;;;;;10.07;4.57;;;;;;;6.79;56.43;100769.75;4406901;27;20156;-72
2024/01/26 07:33:24;;;;;;;14.15;6.12;;;;;;;6.75;56.58;100761.09;4404494;32;20149;-72
2024/01/26 07:35:54;;;;;;;12.68;5.82;;;;;;;6.65;57.01;100759.75;4406019;32;20141;-72
2024/01/26 07:38:24;;;;;;;7.07;5.45;;;;;;;6.63;57.20;100759.81;4406447;32;20476;-72
2024/01/26 07:40:54;;;;;;;18.60;6.97;;;;;;;6.55;57.32;100756.63;4405990;32;20519;-71
2024/01/26 07:43:23;;;;;;;10.73;5.93;;;;;;;6.65;57.40;100768.53;4405709;32;20156;-72
2024/01/26 07:45:53;;;;;;;10.38;5.28;;;;;;;6.61;57.33;100780.09;4406888;32;20153;-72
2024/01/26 07:48:23;;;;;;;9.05;5.57;;;;;;;6.52;57.72;100766.41;4407812;32;20172;-72
2024/01/26 07:50:54;;;;;;;12.20;5.43;;;;;;;6.93;56.70;100770.06;4401386;32;20141;-72
2024/01/26 07:53:24;;;;;;;12.32;6.43;;;;;;;6.82;56.71;100767.84;4408005;32;20172;-72
2024/01/26 07:55:53;;;;;;;15.77;7.35;;;;;;;7.03;56.48;100766.13;4407739;32;20445;-72
2024/01/26 07:58:26;;;;;;;13.32;5.45;;;;;;;7.37;55.42;100767.38;4408015;32;20431;-71
2024/01/26 08:00:56;;;;;;;10.57;5.65;;;;;;;7.94;54.09;100771.03;4419917;27;20200;-72
2024/01/26 08:03:31;;;;;;;14.38;4.47;;;;;;;8.26;53.10;100766.09;4406209;32;20512;-72
2024/01/26 08:06:02;;;;;;;11.00;5.18;;;;;;;8.04;52.97;100760.94;4407831;32;20137;-72
2024/01/26 08:08:31;;;;;;;7.40;4.40;;;;;;;8.21;52.62;100763.66;4408278;32;20157;-72
2024/01/26 08:11:01;;;;;;;8.70;4.72;;;;;;;8.66;51.71;100772.19;4392402;32;20428;-72
2024/01/26 08:13:32;;;;;;;11.90;4.68;;;;;;;8.72;51.70;100771.91;4392466;32;20197;-72
2024/01/26 08:16:02;;;;;;;17.00;4.68;;;;;;;9.17;50.35;100773.25;4392313;32;20264;-72
2024/01/26 08:18:35;;;;;;;9.60;4.10;;;;;;;9.97;48.40;100762.91;4392546;32;20169;-72
2024/01/26 08:21:07;;;;;;;10.07;4.80;;;;;;;10.45;47.01;100758.63;4392644;32;20489;-72
2024/01/26 08:23:39;;;;;;;11.23;5.05;;;;;;;10.65;46.26;100756.63;4392500;32;20164;-72
2024/01/26 08:26:10;;;;;;;7.07;4.57;;;;;;;10.99;45.62;100742.31;4393001;32;20284;-72
2024/01/26 08:28:39;;;;;;;13.13;5.18;;;;;;;11.22;45.11;100741.00;4392369;32;20125;-72
2024/01/26 08:31:08;;;;;;;12.82;5.07;;;;;;;12.06;47.08;100735.94;4397373;27;20184;-72
2024/01/26 08:33:38;;;;;;;10.55;5.15;;;;;;;12.87;43.17;100733.44;4396850;32;20192;-72
2024/01/26 08:36:09;;;;;;;13.07;5.35;;;;;;;13.06;40.96;100727.72;4407574;32;20450;-71
2024/01/26 08:38:38;;;;;;;11.52;5.87;;;;;;;13.40;39.81;100723.69;4407384;32;20141;-73
2024/01/26 08:41:08;;;;;;;12.52;5.78;;;;;;;13.80;39.14;100715.63;4393043;32;20517;-72
2024/01/26 08:43:37;;;;;;;11.68;5.97;;;;;;;13.86;39.12;100728.53;4405307;32;20179;-73
2024/01/26 08:46:06;;;;;;;12.00;6.82;;;;;;;13.85;38.81;100737.44;4407672;32;20140;-73
2024/01/26 08:48:38;;;;;;;11.85;6.40;;;;;;;14.23;38.35;100725.91;4407245;32;20145;-73
2024/01/26 08:51:09;;;;;;;9.52;5.85;;;;;;;14.43;37.84;100736.00;4407727;32;20291;-73
2024/01/26 08:53:38;;;;;;;10.60;4.28;;;;;;;14.70;37.41;100738.50;4407518;32;20149;-73
2024/01/26 08:56:08;;;;;;;7.75;4.90;;;;;;;15.03;36.50;100744.12;4407642;32;20164;-73
2024/01/26 08:58:38;;;;;;;12.63;5.07;;;;;;;14.70;36.89;100757.19;4407226;32;20437;-73
2024/01/26 09:01:07;;;;;;;10.05;4.25;;;;;;;14.96;36.34;100757.94;4385667;27;20149;-73
2024/01/26 09:03:38;;;;;;;8.85;4.85;;;;;;;14.09;37.83;100761.53;4375420;32;20493;-73
2024/01/26 09:06:09;;;;;;;13.50;4.70;;;;;;;13.66;38.80;100756.53;4377046;32;20145;-73
2024/01/26 09:08:39;;;;;;;8.60;4.60;;;;;;;13.92;38.61;100760.03;4376849;32;20173;-73
2024/01/26 09:11:08;;;;;;;10.38;4.22;;;;;;;14.11;38.23;100753.44;4377335;32;20166;-73
2024/01/26 09:13:40;;;;;;;10.68;4.82;;;;;;;13.99;38.04;100755.16;4377175;32;20145;-72
2024/01/26 09:16:11;;;;;;;10.48;4.10;;;;;;;14.05;37.70;100767.19;4376958;32;20300;-72
2024/01/26 09:18:46;;;;;;;11.05;4.40;;;;;;;14.03;38.50;100768.16;4376864;32;20145;-73
2024/01/26 09:21:19;;;;;;;15.05;4.70;;;;;;;14.06;38.32;100768.91;4377010;32;20518;-73
2024/01/26 09:23:47;;;;;;;10.73;4.57;;;;;;;14.17;38.46;100774.31;4377069;32;20158;-73
2024/01/26 09:26:17;;;;;;;8.63;4.25;;;;;;;14.09;38.68;100774.00;4377176;32;20598;-72
2024/01/26 09:28:47;;;;;;;15.13;5.35;;;;;;;14.07;38.29;100776.78;4377279;32;20153;-73
2024/01/26 09:31:17;;;;;;;9.05;3.95;;;;;;;13.76;38.84;100772.72;4388529;27;20149;-72
2024/01/26 09:33:46;;;;;;;11.57;4.47;;;;;;;13.66;39.21;100771.63;4375535;32;20158;-72
2024/01/26 09:36:16;;;;;;;7.65;4.28;;;;;;;13.42;39.79;100779.47;4377247;32;20149;-73
2024/01/26 09:38:47;;;;;;;12.85;3.67;;;;;;;13.28;40.09;100783.94;4377011;32;20157;-73
2024/01/26 09:41:16;;;;;;;11.57;3.62;;;;;;;13.48;39.20;100781.75;4387475;27;20149;-73
2024/01/26 09:43:46;;;;;;;10.38;4.57;;;;;;;13.77;38.90;100771.75;4376607;32;20149;-73
2024/01/26 09:46:15;;;;;;;10.45;4.30;;;;;;;13.84;38.79;100772.19;4403147;27;20142;-73
2024/01/26 09:48:49;;;;;;;10.23;4.07;;;;;;;13.59;38.53;100773.88;4377652;32;20153;-73
2024/01/26 09:51:18;;;;;;;15.05;4.00;;;;;;;13.43;39.11;100779.41;4377974;32;20153;-73
2024/01/26 09:53:52;;;;;;;8.52;3.47;;;;;;;14.00;37.95;100771.03;4377698;32;20141;-73
2024/01/26 09:56:22;;;;;;;7.12;3.10;;;;;;;14.35;36.88;100761.50;4377996;32;20138;-73
2024/01/26 09:58:55;;;;;;;4.87;2.95;;;;;;;14.54;37.30;100769.09;4377658;32;20149;-72
2024/01/26 10:01:25;;;;;;;9.35;4.10;;;;;;;14.64;36.23;100764.78;4377763;32;20399;-73
2024/01/26 10:03:58;;;;;;;8.77;3.67;;;;;;;14.65;35.78;100766.47;4377726;32;20147;-73
2024/01/26 10:06:27;;;;;;;6.47;3.35;;;;;;;14.60;35.97;100774.81;4378092;32;20146;-73
2024/01/26 10:08:58;;;;;;;8.85;3.80;;;;;;;14.25;36.03;100766.63;4376881;32;20161;-71
2024/01/26 10:11:28;;;;;;;9.65;3.10;;;;;;;14.94;35.25;100765.22;4378596;32;20176;-71
2024/01/26 10:13:58;;;;;;;4.35;3.25;;;;;;;14.58;35.52;100767.91;4377835;32;20141;-71
2024/01/26 10:16:27;;;;;;;8.20;2.70;;;;;;;14.43;35.14;100751.16;4397263;27;20157;-71
2024/01/26 10:19:00;;;;;;;4.55;2.78;;;;;;;14.70;35.09;100751.84;4392951;32;20168;-71
2024/01/26 10:21:32;;;;;;;6.18;2.67;;;;;;;14.68;33.99;100737.75;4392715;32;20129;-71
2024/01/26 10:24:04;;;;;;;5.90;2.70;;;;;;;14.67;34.35;100746.72;4392677;32;20153;-71
2024/01/26 10:26:33;;;;;;;8.32;3.45;;;;;;;14.82;33.81;100739.44;4393361;32;20177;-71
2024/01/26 10:29:02;;;;;;;7.00;2.85;;;;;;;14.88;33.04;100736.28;4392691;32;20150;-71
2024/01/26 10:31:33;;;;;;;9.30;4.07;;;;;;;15.04;33.84;100732.50;4393024;32;20515;-71
2024/01/26 10:34:05;;;;;;;6.43;2.40;;;;;;;15.58;33.52;100723.94;4392783;32;20396;-71
2024/01/26 10:36:35;;;;;;;6.90;2.63;;;;;;;14.88;33.71;100744.28;4392799;32;20134;-71
2024/01/26 10:39:07;;;;;;;6.10;2.78;;;;;;;14.82;34.13;100734.09;4392760;32;20154;-71
2024/01/26 10:41:42;;;;;;;8.98;2.55;;;;;;;15.31;33.13;100740.25;4392432;32;20226;-71
2024/01/26 10:44:16;;;;;;;3.85;2.12;;;;;;;15.17;33.20;100735.97;4397914;27;20145;-71
2024/01/26 10:46:46;;;;;;;5.45;1.73;;;;;;;14.83;33.15;100738.47;4362103;33;20142;-71
2024/01/26 10:49:16;;;;;;;6.60;2.78;;;;;;;14.70;33.48;100738.50;4362538;33;20485;-71
2024/01/26 10:51:48;;;;;;;7.60;1.98;;;;;;;14.82;33.46;100741.25;4362502;33;20138;-70
2024/01/26 10:54:20;;;;;;;3.80;2.40;;;;;;;14.58;33.27;100736.75;4362297;32;20185;-71
2024/01/26 10:56:49;;;;;;;5.55;2.70;;;;;;;14.30;34.27;100735.19;4362778;33;20141;-71
2024/01/26 10:59:20;;;;;;;8.23;2.30;;;;;;;14.64;34.29;100730.94;4362798;33;20146;-71
2024/01/26 11:01:50;;;;;;;4.30;2.72;;;;;;;14.99;34.37;100738.19;4362584;33;20153;-71
2024/01/26 11:04:23;;;;;;;10.82;4.35;;;;;;;14.48;35.18;100733.00;4362065;33;20154;-71
2024/01/26 11:06:53;;;;;;;8.55;2.78;;;;;;;14.32;35.24;100735.91;4356065;33;20150;-70
2024/01/26 11:09:25;;;;;;;6.87;2.65;;;;;;;14.28;35.71;100745.09;4361971;33;20146;-70
2024/01/26 11:11:54;;;;;;;8.03;2.97;;;;;;;14.36;35.39;100732.06;4361979;33;20145;-71
2024/01/26 11:14:27;;;;;;;7.12;3.22;;;;;;;14.66;34.75;100729.03;4362155;27;20142;-71
2024/01/26 11:17:09;;;;;;;9.07;2.67;;;;;;;14.57;34.29;100721.72;4356267;33;20141;-71
2024/01/26 11:19:49;;;;;;;9.43;2.50;;;;;;;15.30;33.43;100719.88;4361923;32;20500;-71
2024/01/26 11:22:20;;;;;;;4.57;2.75;;;;;;;14.99;34.34;100715.00;4362010;32;20142;-70
2024/01/26 11:24:59;;;;;;;6.62;2.67;;;;;;;15.00;34.20;100711.34;4362116;32;20147;-71
2024/01/26 11:27:29;;;;;;;5.87;2.20;;;;;;;15.03;33.86;100706.78;4362124;32;20157;-71
2024/01/26 11:29:58;;;;;;;4.43;1.90;;;;;;;15.08;33.11;100707.28;4362103;33;20142;-71
2024/01/26 11:32:29;;;;;;;5.95;1.92;;;;;;;14.60;33.54;100702.78;4362711;33;20165;-71
2024/01/26 11:35:00;;;;;;;9.90;3.33;;;;;;;14.76;33.20;100699.84;4355866;32;20169;-73
2024/01/26 11:37:36;;;;;;;6.70;2.40;;;;;;;14.88;33.39;100698.94;4361969;32;20158;-72
2024/01/26 11:42:55;;;;;;;13.38;3.30;;;;;;;14.95;33.52;100696.69;4361805;32;20137;-73
2024/01/26 11:45:43;;;;;;;8.93;2.75;;;;;;;14.65;33.98;100694.44;4380558;27;20149;-73